Artois, California
Current Conditions -  °F | °C
As of 7:50 AM on Tuesday 21 Oct 2014 (Local Time) from KCIC Reporting Station
Broken Clouds Broken Clouds  
Wind Chill: 44°   Ceiling: 25000
Heat Index: 46°   Visibility: 40mi
Dew Point: 43°   Wind: 6mph
Humidity: 87%   Direction: 310°NW
Pressure: 30.12"   Gusts: NA
Location:  39.62°N, 122.2°W
Report Text: KCIC 211450Z 31005KT 40SM SCT120 BKN250 08/06 A3012
Loading
Personal Weather Stations






























Interactive Weather Map
Tropical Storm Tracking
New forecast layout! Learn more

10-Day Weather Forecast

Advertisements
Track Severe Weather on mobile